createdAt,value
2023-03-02T00:00:33.791Z,1.52
2023-03-02T00:02:39.673Z,1.50
2023-03-02T00:04:47.356Z,2.65
2023-03-02T00:06:51.721Z,4.97
2023-03-02T00:08:54.092Z,2.85
2023-03-02T00:10:58.342Z,3.45
2023-03-02T00:13:00.507Z,5.00
2023-03-02T00:15:05.696Z,2.92
2023-03-02T00:17:10.816Z,2.72
2023-03-02T00:19:12.816Z,2.65
2023-03-02T00:21:15.372Z,2.65
2023-03-02T00:23:17.329Z,3.05
2023-03-02T00:25:19.781Z,4.13
2023-03-02T00:27:24.813Z,4.05
2023-03-02T00:29:27.379Z,5.38
2023-03-02T00:31:29.492Z,5.13
2023-03-02T00:33:33.142Z,3.13
2023-03-02T00:35:40.077Z,7.40
2023-03-02T00:37:42.206Z,6.97
2023-03-02T00:39:44.475Z,3.78
2023-03-02T00:41:47.675Z,5.28
2023-03-02T00:43:51.208Z,5.65
2023-03-02T00:45:55.715Z,6.68
2023-03-02T00:47:58.082Z,7.10
2023-03-02T00:50:00.152Z,5.57
2023-03-02T00:52:02.893Z,7.03
2023-03-02T00:54:06.525Z,5.13
2023-03-02T00:56:11.705Z,9.93
2023-03-02T00:58:14.125Z,6.25
2023-03-02T01:00:16.810Z,6.70
2023-03-02T01:02:21.617Z,7.38
2023-03-02T01:04:31.016Z,6.43
2023-03-02T01:06:33.473Z,6.50
2023-03-02T01:08:38.169Z,7.25
2023-03-02T01:10:41.274Z,9.82
2023-03-02T01:12:43.380Z,10.90
2023-03-02T01:14:48.278Z,7.10
2023-03-02T01:16:50.420Z,5.18
2023-03-02T01:18:54.623Z,6.15
2023-03-02T01:21:03.217Z,10.20
2023-03-02T01:23:05.455Z,7.05
2023-03-02T01:25:08.757Z,7.32
2023-03-02T01:27:11.041Z,5.88
2023-03-02T01:29:15.429Z,7.68
2023-03-02T01:31:17.688Z,7.43
2023-03-02T01:33:20.021Z,7.50
2023-03-02T01:35:22.153Z,7.55
2023-03-02T01:37:27.141Z,7.90
2023-03-02T01:39:29.286Z,6.60
2023-03-02T01:41:31.870Z,6.70
2023-03-02T01:43:34.047Z,8.68
2023-03-02T01:45:45.816Z,12.02
2023-03-02T01:47:48.033Z,6.38
2023-03-02T01:49:57.140Z,7.15
2023-03-02T01:51:59.409Z,6.32
2023-03-02T01:54:08.696Z,6.32
2023-03-02T01:56:10.961Z,8.63
2023-03-02T01:58:15.668Z,10.10
2023-03-02T02:00:24.884Z,6.45
2023-03-02T02:02:29.941Z,8.32
2023-03-02T02:04:33.828Z,9.75
2023-03-02T02:06:40.852Z,9.27
2023-03-02T02:08:43.210Z,6.72
2023-03-02T02:10:45.312Z,9.45
2023-03-02T02:12:47.332Z,6.65
2023-03-02T02:14:55.362Z,7.28
2023-03-02T02:17:00.198Z,9.18
2023-03-02T02:19:04.345Z,8.00
2023-03-02T02:21:08.171Z,10.82
2023-03-02T02:23:16.644Z,7.80
2023-03-02T02:25:24.928Z,8.13
2023-03-02T02:27:30.079Z,10.70
2023-03-02T02:29:36.031Z,11.20
2023-03-02T02:31:46.853Z,10.02
2023-03-02T02:35:58.331Z,7.68
2023-03-02T02:38:05.549Z,7.40
2023-03-02T02:40:15.800Z,8.68
2023-03-02T02:42:26.444Z,6.68
2023-03-02T02:44:28.418Z,12.77
2023-03-02T02:46:31.951Z,5.78
2023-03-02T02:48:34.677Z,10.02
2023-03-02T02:50:38.113Z,10.40
2023-03-02T02:52:41.679Z,5.70
2023-03-02T02:54:46.797Z,6.18
2023-03-02T02:56:50.418Z,9.15
2023-03-02T02:58:56.199Z,7.53
2023-03-02T03:00:59.276Z,8.05
2023-03-02T03:03:29.354Z,6.65
2023-03-02T03:05:31.240Z,8.67
2023-03-02T03:07:33.321Z,7.00
2023-03-02T03:09:35.271Z,10.45
2023-03-02T03:11:41.953Z,9.93
2023-03-02T03:13:44.871Z,6.53
2023-03-02T03:15:46.658Z,9.80
2023-03-02T03:17:55.437Z,11.90
2023-03-02T03:20:06.292Z,10.25
2023-03-02T03:22:11.935Z,9.52
2023-03-02T03:24:13.924Z,13.20
2023-03-02T03:26:16.654Z,9.82
2023-03-02T03:28:18.699Z,12.00
2023-03-02T03:30:20.567Z,8.73
2023-03-02T03:32:22.962Z,9.55
2023-03-02T03:34:25.926Z,8.98
2023-03-02T03:36:30.942Z,8.32
2023-03-02T03:38:32.929Z,9.65
2023-03-02T03:40:34.932Z,9.85
2023-03-02T03:42:37.990Z,8.05
2023-03-02T03:44:39.846Z,10.70
2023-03-02T03:46:41.714Z,12.07
2023-03-02T03:48:44.363Z,7.80
2023-03-02T03:50:46.225Z,8.05
2023-03-02T03:52:48.148Z,12.48
2023-03-02T03:54:52.157Z,9.63
2023-03-02T03:56:56.246Z,10.07
2023-03-02T03:59:06.921Z,12.50
2023-03-02T04:01:08.828Z,7.43
2023-03-02T04:03:10.665Z,10.50
2023-03-02T04:05:13.550Z,9.38
2023-03-02T04:07:15.610Z,11.38
2023-03-02T04:09:19.953Z,10.38
2023-03-02T04:11:22.572Z,11.73
2023-03-02T04:13:26.493Z,13.18
2023-03-02T04:15:28.386Z,9.43
2023-03-02T04:17:30.224Z,11.05
2023-03-02T04:19:32.844Z,9.10
2023-03-02T04:21:35.157Z,10.73
2023-03-02T04:23:36.955Z,12.43
2023-03-02T04:25:38.816Z,12.13
2023-03-02T04:27:41.137Z,11.63
2023-03-02T04:29:44.850Z,12.60
2023-03-02T04:31:48.673Z,11.00
2023-03-02T04:33:51.475Z,9.15
2023-03-02T04:35:54.725Z,13.30
2023-03-02T04:37:56.629Z,10.88
2023-03-02T04:39:58.587Z,9.77
2023-03-02T04:42:02.731Z,13.07
2023-03-02T04:44:07.702Z,14.10
2023-03-02T04:46:15.153Z,10.73
2023-03-02T04:48:17.328Z,13.52
2023-03-02T04:50:19.408Z,13.27
2023-03-02T04:52:22.295Z,13.48
2023-03-02T04:54:26.292Z,10.95
2023-03-02T04:56:28.847Z,13.18
2023-03-02T04:58:30.716Z,15.80
2023-03-02T05:00:34.262Z,15.43
2023-03-02T05:02:36.222Z,16.65
2023-03-02T05:04:38.226Z,14.07
2023-03-02T05:06:40.203Z,12.45
2023-03-02T05:08:42.840Z,15.63
2023-03-02T05:10:46.734Z,11.82
2023-03-02T05:12:53.674Z,13.80
2023-03-02T05:14:55.483Z,14.85
2023-03-02T05:16:57.679Z,16.70
2023-03-02T05:19:03.194Z,14.25
2023-03-02T05:21:05.289Z,16.52
2023-03-02T05:23:09.363Z,13.48
2023-03-02T05:25:11.524Z,13.45
2023-03-02T05:27:13.425Z,13.48
2023-03-02T05:29:15.248Z,15.88
2023-03-02T05:31:23.336Z,17.48
2023-03-02T05:33:25.361Z,15.07
2023-03-02T05:35:28.459Z,16.00
2023-03-02T05:37:30.340Z,13.45
2023-03-02T05:39:32.418Z,16.83
2023-03-02T05:41:34.972Z,19.45
2023-03-02T05:43:36.830Z,15.05
2023-03-02T05:45:39.289Z,14.60
2023-03-02T05:47:41.251Z,15.85
2023-03-02T05:49:43.058Z,17.35
2023-03-02T05:51:44.974Z,19.75
2023-03-02T05:53:46.916Z,16.83
2023-03-02T05:55:49.217Z,16.27
2023-03-02T05:57:51.052Z,16.42
2023-03-02T05:59:52.991Z,19.23
2023-03-02T06:01:59.055Z,17.38
2023-03-02T06:04:01.166Z,15.80
2023-03-02T06:06:03.099Z,17.35
2023-03-02T06:08:05.939Z,18.23
2023-03-02T06:10:10.450Z,14.35
2023-03-02T06:12:12.331Z,19.42
2023-03-02T06:14:14.280Z,15.38
2023-03-02T06:16:16.249Z,14.82
2023-03-02T06:18:20.478Z,18.63
2023-03-02T06:20:22.436Z,16.20
2023-03-02T06:22:24.572Z,17.20
2023-03-02T06:24:26.565Z,17.55
2023-03-02T06:26:28.576Z,16.85
2023-03-02T06:28:31.801Z,15.77
2023-03-02T06:30:34.713Z,17.90
2023-03-02T06:32:36.692Z,18.08
2023-03-02T06:34:40.821Z,15.77
2023-03-02T06:36:43.087Z,17.85
2023-03-02T06:38:45.585Z,19.13
2023-03-02T06:40:47.507Z,16.98
2023-03-02T06:42:49.399Z,21.60
2023-03-02T06:44:51.953Z,19.80
2023-03-02T06:46:53.860Z,23.30
2023-03-02T06:48:55.807Z,19.02
2023-03-02T06:50:57.678Z,19.73
2023-03-02T06:52:59.915Z,18.23
2023-03-02T06:55:01.884Z,19.20
2023-03-02T06:57:04.302Z,18.40
2023-03-02T06:59:06.326Z,19.13
2023-03-02T07:01:08.304Z,20.33
2023-03-02T07:03:10.151Z,22.05
2023-03-02T07:05:12.876Z,19.48
2023-03-02T07:07:14.776Z,19.52
2023-03-02T07:09:18.809Z,21.50
2023-03-02T07:11:20.863Z,23.25
2023-03-02T07:13:22.836Z,16.25
2023-03-02T07:15:24.902Z,19.67
2023-03-02T07:17:27.085Z,21.00
2023-03-02T07:19:28.943Z,22.67
2023-03-02T07:21:31.117Z,21.40
2023-03-02T07:23:33.894Z,18.23
2023-03-02T07:25:37.108Z,19.27
2023-03-02T07:27:39.247Z,27.70
2023-03-02T07:29:41.558Z,19.00
2023-03-02T07:31:44.406Z,25.55
2023-03-02T07:33:46.331Z,24.92
2023-03-02T07:35:48.965Z,22.05
2023-03-02T07:37:53.026Z,22.35
2023-03-02T07:39:54.958Z,22.30
2023-03-02T07:42:00.070Z,21.83
2023-03-02T07:44:06.870Z,23.98
2023-03-02T07:46:09.150Z,24.80
2023-03-02T07:48:11.160Z,24.55
2023-03-02T07:50:13.273Z,22.33
2023-03-02T07:52:15.473Z,20.40
2023-03-02T07:54:17.332Z,24.88
2023-03-02T07:56:20.576Z,21.05
2023-03-02T07:58:23.212Z,23.58
2023-03-02T08:00:25.555Z,27.42
2023-03-02T08:02:28.459Z,23.52
2023-03-02T08:04:30.756Z,25.52
2023-03-02T08:06:32.728Z,28.73
2023-03-02T08:08:35.329Z,26.48
2023-03-02T08:10:40.036Z,26.48
2023-03-02T08:12:43.109Z,20.77
2023-03-02T08:14:48.085Z,22.88
2023-03-02T08:16:52.430Z,22.88
2023-03-02T08:18:54.631Z,26.20
2023-03-02T08:20:58.033Z,26.48
2023-03-02T08:23:00.127Z,24.40
2023-03-02T08:25:02.502Z,24.98
2023-03-02T08:27:05.096Z,23.85
2023-03-02T08:29:08.067Z,25.95
2023-03-02T08:31:10.692Z,26.13
2023-03-02T08:33:12.933Z,27.45
2023-03-02T08:35:17.624Z,26.95
2023-03-02T08:37:20.026Z,23.92
2023-03-02T08:39:23.756Z,27.52
2023-03-02T08:41:26.347Z,24.15
2023-03-02T08:43:28.522Z,26.08
2023-03-02T08:45:30.619Z,26.45
2023-03-02T08:47:32.771Z,25.10
2023-03-02T08:49:34.879Z,24.33
2023-03-02T08:51:37.110Z,29.90
2023-03-02T08:53:41.756Z,30.30
2023-03-02T08:55:43.782Z,29.02
2023-03-02T08:57:45.825Z,24.65
2023-03-02T08:59:47.924Z,28.17
2023-03-02T09:01:50.770Z,25.58
2023-03-02T09:04:06.022Z,38.60
2023-03-02T09:06:08.353Z,30.77
2023-03-02T09:08:14.319Z,23.52
2023-03-02T09:10:16.476Z,31.25
2023-03-02T09:12:18.526Z,32.25
2023-03-02T09:14:47.030Z,30.83
2023-03-02T09:16:49.394Z,36.53
2023-03-02T09:18:52.392Z,30.40
2023-03-02T09:20:54.446Z,31.92
2023-03-02T09:22:56.600Z,35.30
2023-03-02T09:24:58.972Z,26.90
2023-03-02T09:27:00.956Z,29.83
2023-03-02T09:29:03.133Z,30.13
2023-03-02T09:31:07.657Z,31.38
2023-03-02T09:33:11.934Z,28.20
2023-03-02T09:35:16.271Z,34.13
2023-03-02T09:37:18.353Z,30.08
2023-03-02T09:39:20.296Z,28.35
2023-03-02T09:41:23.086Z,30.52
2023-03-02T09:43:33.402Z,36.75
2023-03-02T09:45:39.366Z,32.05
2023-03-02T09:47:46.007Z,29.50
2023-03-02T09:49:59.694Z,30.42
2023-03-02T09:52:12.374Z,32.45
2023-03-02T09:54:19.577Z,30.55
2023-03-02T09:56:25.104Z,31.73
2023-03-02T09:58:32.172Z,30.23
2023-03-02T10:00:37.275Z,29.50
2023-03-02T10:02:47.386Z,30.42
2023-03-02T10:04:53.523Z,31.55
2023-03-02T10:07:00.109Z,26.90
2023-03-02T10:09:02.314Z,28.02
2023-03-02T10:11:10.857Z,30.92
2023-03-02T10:13:20.594Z,25.90
2023-03-02T10:15:31.915Z,25.52
2023-03-02T10:17:42.779Z,29.80
2023-03-02T10:21:58.471Z,21.95
2023-03-02T10:24:09.880Z,28.10
2023-03-02T10:26:19.678Z,27.23
2023-03-02T10:28:29.682Z,23.55
2023-03-02T10:30:35.657Z,26.77
2023-03-02T10:32:45.644Z,27.80
2023-03-02T10:34:50.163Z,23.92
2023-03-02T10:36:52.179Z,23.05
2023-03-02T10:38:55.310Z,22.55
2023-03-02T10:41:02.648Z,25.25
2023-03-02T10:43:07.401Z,28.52
2023-03-02T10:45:22.652Z,24.60
2023-03-02T10:47:28.812Z,19.83
2023-03-02T10:49:33.652Z,23.98
2023-03-02T10:51:35.750Z,22.95
2023-03-02T10:53:37.838Z,24.58
2023-03-02T10:55:47.157Z,23.95
2023-03-02T10:58:01.881Z,23.80
2023-03-02T11:00:12.414Z,20.15
2023-03-02T11:02:24.144Z,18.52
2023-03-02T11:04:26.303Z,21.33
2023-03-02T11:06:29.910Z,23.10
2023-03-02T11:08:33.125Z,23.77
2023-03-02T11:10:39.809Z,20.25
2023-03-02T11:12:47.809Z,24.23
2023-03-02T11:14:49.928Z,21.45
2023-03-02T11:16:53.535Z,20.85
2023-03-02T11:18:58.453Z,23.45
2023-03-02T11:21:05.993Z,23.52
2023-03-02T11:23:14.629Z,17.20
2023-03-02T11:25:28.763Z,20.83
2023-03-02T11:27:36.874Z,22.45
2023-03-02T11:29:44.612Z,21.67
2023-03-02T11:31:50.748Z,19.45
2023-03-02T11:34:11.791Z,19.85
2023-03-02T11:36:24.891Z,19.92
2023-03-02T11:38:30.779Z,22.65
2023-03-02T11:40:40.371Z,24.23
2023-03-02T11:42:45.845Z,19.73
2023-03-02T11:44:49.464Z,18.73
2023-03-02T11:47:01.322Z,22.70
2023-03-02T11:49:13.572Z,21.90
2023-03-02T11:51:22.421Z,21.10
2023-03-02T11:53:31.799Z,24.85
2023-03-02T11:55:41.071Z,20.85
2023-03-02T11:57:49.700Z,18.23
2023-03-02T11:59:54.292Z,18.23
2023-03-02T12:01:59.718Z,26.35
2023-03-02T12:04:08.737Z,18.80
2023-03-02T12:06:17.580Z,22.25
2023-03-02T12:08:20.374Z,24.85
2023-03-02T12:10:28.738Z,17.77
2023-03-02T12:12:36.812Z,21.40
2023-03-02T12:14:45.337Z,18.75
2023-03-02T12:16:47.618Z,19.67
2023-03-02T12:18:51.958Z,19.08
2023-03-02T12:21:00.397Z,18.60
2023-03-02T12:23:08.072Z,18.42
2023-03-02T12:25:16.253Z,18.92
2023-03-02T12:27:25.571Z,16.08
2023-03-02T12:29:42.715Z,20.50
2023-03-02T12:31:48.347Z,18.50
2023-03-02T12:33:52.864Z,16.65
2023-03-02T12:36:05.359Z,21.50
2023-03-02T12:38:13.920Z,17.13
2023-03-02T12:40:22.223Z,19.45
2023-03-02T12:42:30.589Z,18.55
2023-03-02T12:44:39.325Z,19.08
2023-03-02T12:46:46.506Z,24.25
2023-03-02T12:48:59.569Z,16.20
2023-03-02T12:51:04.734Z,18.95
2023-03-02T12:53:18.148Z,18.75
2023-03-02T12:55:21.019Z,16.45
2023-03-02T12:57:23.118Z,16.92
2023-03-02T12:59:28.651Z,16.85
2023-03-02T13:01:33.134Z,15.20
2023-03-02T13:03:46.520Z,15.05
2023-03-02T13:05:48.929Z,15.57
2023-03-02T13:07:59.368Z,18.08
2023-03-02T13:10:06.866Z,12.48
2023-03-02T13:12:14.411Z,13.57
2023-03-02T13:14:28.594Z,12.85
2023-03-02T13:16:34.328Z,16.48
2023-03-02T13:18:39.754Z,15.70
2023-03-02T13:20:44.335Z,14.20
2023-03-02T13:22:46.887Z,12.70
2023-03-02T13:24:55.536Z,14.48
2023-03-02T13:27:04.102Z,16.02
2023-03-02T13:29:21.099Z,15.15
2023-03-02T13:31:27.515Z,14.57
2023-03-02T13:33:31.820Z,11.05
2023-03-02T13:35:38.152Z,15.80
2023-03-02T13:37:44.269Z,12.48
2023-03-02T13:39:55.741Z,9.88
2023-03-02T13:42:04.830Z,11.75
2023-03-02T13:44:17.258Z,11.50
2023-03-02T13:46:20.283Z,11.52
2023-03-02T13:48:23.516Z,12.98
2023-03-02T13:50:30.418Z,9.48
2023-03-02T13:52:34.854Z,10.50
2023-03-02T13:54:58.021Z,11.95
2023-03-02T13:57:04.593Z,12.82
2023-03-02T13:59:15.490Z,10.77
2023-03-02T14:01:17.641Z,8.95
2023-03-02T14:03:23.477Z,11.68
2023-03-02T14:05:36.129Z,12.77
2023-03-02T14:07:38.806Z,9.35
2023-03-02T14:09:43.631Z,10.73
2023-03-02T14:11:49.556Z,11.98
2023-03-02T14:14:11.887Z,11.10
2023-03-02T14:16:15.580Z,11.23
2023-03-02T14:18:24.147Z,8.45
2023-03-02T14:20:26.569Z,10.23
2023-03-02T14:22:39.606Z,10.23
2023-03-02T14:24:50.694Z,9.07
2023-03-02T14:26:53.542Z,11.80
2023-03-02T14:29:05.384Z,10.50
2023-03-02T14:31:15.176Z,8.70
2023-03-02T14:33:17.824Z,18.45
2023-03-02T14:35:20.229Z,10.40
2023-03-02T14:37:27.997Z,7.85
2023-03-02T14:39:36.114Z,8.15
2023-03-02T14:41:52.498Z,5.63
2023-03-02T14:43:55.700Z,10.82
2023-03-02T14:45:58.138Z,7.32
2023-03-02T14:48:01.099Z,8.57
2023-03-02T14:50:05.428Z,8.02
2023-03-02T14:52:15.335Z,9.90
2023-03-02T14:54:24.129Z,7.53
2023-03-02T14:56:26.377Z,9.27
2023-03-02T14:58:32.846Z,11.13
2023-03-02T15:00:37.436Z,6.40
2023-03-02T15:02:39.831Z,9.73
2023-03-02T15:04:42.102Z,10.98
2023-03-02T15:06:44.298Z,9.30
2023-03-02T15:08:46.418Z,6.05
2023-03-02T15:10:49.663Z,8.80
2023-03-02T15:12:51.852Z,9.48
2023-03-02T15:14:53.955Z,11.70
2023-03-02T15:16:55.999Z,6.60
2023-03-02T15:19:00.494Z,9.07
2023-03-02T15:21:02.690Z,6.82
2023-03-02T15:23:05.049Z,7.88
2023-03-02T15:25:07.240Z,9.50
2023-03-02T15:27:09.421Z,6.60
2023-03-02T15:29:11.403Z,9.60
2023-03-02T15:31:16.050Z,8.65
2023-03-02T15:33:18.315Z,9.55
2023-03-02T15:35:20.760Z,6.65
2023-03-02T15:37:22.980Z,7.88
2023-03-02T15:39:25.030Z,8.57
2023-03-02T15:41:30.107Z,7.07
2023-03-02T15:43:32.649Z,6.95
2023-03-02T15:45:34.939Z,5.90
2023-03-02T15:47:38.206Z,9.23
2023-03-02T15:49:40.580Z,10.85
2023-03-02T15:51:47.356Z,10.63
2023-03-02T15:53:49.435Z,6.72
2023-03-02T15:55:51.709Z,6.90
2023-03-02T15:57:53.914Z,6.00
2023-03-02T15:59:56.173Z,8.25
2023-03-02T16:01:59.914Z,6.93
2023-03-02T16:04:07.768Z,7.00
2023-03-02T16:06:22.751Z,6.22
2023-03-02T16:08:31.155Z,9.60
2023-03-02T16:10:36.403Z,9.45
2023-03-02T16:12:38.716Z,9.63
2023-03-02T16:14:40.792Z,9.18
2023-03-02T16:16:44.117Z,9.05
2023-03-02T16:18:50.697Z,9.00
2023-03-02T16:20:53.133Z,7.28
2023-03-02T16:22:55.180Z,8.02
2023-03-02T16:24:57.275Z,4.43
2023-03-02T16:27:02.127Z,10.50
2023-03-02T16:29:05.797Z,6.18
2023-03-02T16:31:10.929Z,7.00
2023-03-02T16:33:16.931Z,12.30
2023-03-02T16:35:19.725Z,4.65
2023-03-02T16:37:22.397Z,9.43
2023-03-02T16:39:24.924Z,6.45
2023-03-02T16:41:27.412Z,7.32
2023-03-02T16:43:29.748Z,7.00
2023-03-02T16:45:33.303Z,5.65
2023-03-02T16:47:43.623Z,7.53
2023-03-02T16:49:57.070Z,7.43
2023-03-02T16:52:00.038Z,10.88
2023-03-02T16:54:02.734Z,9.48
2023-03-02T16:56:05.401Z,4.93
2023-03-02T16:58:07.549Z,6.82
2023-03-02T17:00:12.858Z,7.45
2023-03-02T17:02:16.010Z,7.60
2023-03-02T17:04:22.303Z,7.10
2023-03-02T17:06:24.989Z,8.52
2023-03-02T17:08:35.055Z,5.68
2023-03-02T17:10:38.646Z,8.82
2023-03-02T17:12:41.476Z,23.27
2023-03-02T17:14:43.690Z,5.85
2023-03-02T17:16:45.821Z,13.77
2023-03-02T17:18:49.531Z,7.78
2023-03-02T17:20:58.986Z,6.97
2023-03-02T17:23:04.468Z,6.38
2023-03-02T17:25:11.889Z,9.30
2023-03-02T17:27:25.089Z,4.93
2023-03-02T17:29:30.489Z,5.82
2023-03-02T17:31:33.378Z,6.95
2023-03-02T17:33:38.144Z,5.18
2023-03-02T17:35:41.336Z,5.20
2023-03-02T17:37:44.639Z,7.57
2023-03-02T17:39:50.551Z,5.55
2023-03-02T17:41:52.953Z,6.72
2023-03-02T17:43:55.040Z,9.23
2023-03-02T17:45:58.249Z,7.13
2023-03-02T17:48:01.101Z,10.35
2023-03-02T17:50:05.311Z,5.28
2023-03-02T17:52:14.061Z,8.77
2023-03-02T17:54:32.509Z,5.50
2023-03-02T17:56:40.285Z,7.93
2023-03-02T17:58:46.896Z,9.60
2023-03-02T18:00:49.634Z,4.10
2023-03-02T18:02:53.207Z,7.10
2023-03-02T18:04:55.961Z,5.45
2023-03-02T18:07:04.305Z,7.30
2023-03-02T18:09:09.305Z,4.50
2023-03-02T18:11:12.061Z,4.85
2023-03-02T18:13:17.114Z,7.38
2023-03-02T18:15:31.715Z,10.98
2023-03-02T18:17:39.411Z,6.60
2023-03-02T18:19:41.739Z,4.15
2023-03-02T18:21:46.795Z,7.82
2023-03-02T18:23:49.333Z,6.55
2023-03-02T18:25:51.640Z,13.80
2023-03-02T18:27:56.262Z,8.50
2023-03-02T18:29:58.969Z,7.60
2023-03-02T18:32:01.337Z,7.30
2023-03-02T18:34:04.482Z,5.57
2023-03-02T18:36:07.273Z,4.35
2023-03-02T18:38:09.586Z,8.48
2023-03-02T18:40:12.476Z,4.82
2023-03-02T18:42:14.772Z,7.85
2023-03-02T18:44:18.192Z,11.13
2023-03-02T18:46:24.354Z,13.18
2023-03-02T18:48:29.130Z,12.63
2023-03-02T18:50:31.958Z,7.90
2023-03-02T18:52:34.733Z,7.70
2023-03-02T18:54:37.036Z,7.32
2023-03-02T18:56:42.803Z,5.30
2023-03-02T18:58:45.719Z,7.75
2023-03-02T19:00:49.125Z,11.88
2023-03-02T19:02:54.660Z,7.47
2023-03-02T19:04:56.708Z,8.98
2023-03-02T19:07:01.036Z,12.57
2023-03-02T19:09:03.526Z,10.85
2023-03-02T19:11:07.136Z,15.05
2023-03-02T19:13:11.837Z,9.45
2023-03-02T19:15:14.378Z,8.93
2023-03-02T19:17:16.777Z,6.38
2023-03-02T19:19:19.288Z,8.52
2023-03-02T19:21:21.695Z,9.02
2023-03-02T19:23:25.444Z,9.77
2023-03-02T19:25:28.414Z,11.45
2023-03-02T19:27:30.669Z,5.80
2023-03-02T19:29:34.907Z,9.13
2023-03-02T19:31:40.812Z,11.48
2023-03-02T19:33:44.969Z,12.93
2023-03-02T19:35:47.222Z,10.35
2023-03-02T19:37:49.447Z,9.07
2023-03-02T19:39:51.680Z,7.70
2023-03-02T19:41:54.470Z,9.45
2023-03-02T19:43:57.186Z,9.63
2023-03-02T19:45:59.408Z,9.95
2023-03-02T19:48:03.197Z,9.70
2023-03-02T19:50:06.798Z,8.93
2023-03-02T19:52:09.385Z,14.85
2023-03-02T19:54:11.529Z,7.70
2023-03-02T19:56:15.268Z,9.77
2023-03-02T19:58:19.732Z,6.97
2023-03-02T20:00:23.214Z,9.32
2023-03-02T20:02:25.372Z,14.77
2023-03-02T20:04:27.933Z,7.30
2023-03-02T20:06:33.610Z,13.05
2023-03-02T20:08:36.581Z,10.88
2023-03-02T20:10:42.163Z,8.48
2023-03-02T20:12:45.153Z,10.90
2023-03-02T20:14:50.672Z,10.95
2023-03-02T20:16:55.694Z,9.80
2023-03-02T20:19:02.663Z,9.48
2023-03-02T20:21:07.435Z,10.18
2023-03-02T20:23:10.588Z,8.75
2023-03-02T20:25:14.967Z,7.85
2023-03-02T20:27:19.873Z,8.68
2023-03-02T20:29:23.068Z,12.25
2023-03-02T20:31:27.664Z,8.68
2023-03-02T20:33:35.177Z,5.93
2023-03-02T20:35:41.353Z,6.72
2023-03-02T20:37:45.558Z,8.35
2023-03-02T20:39:49.614Z,5.75
2023-03-02T20:41:55.833Z,10.85
2023-03-02T20:43:59.281Z,8.60
2023-03-02T20:46:04.190Z,7.82
2023-03-02T20:48:07.021Z,8.60
2023-03-02T20:50:13.399Z,9.80
2023-03-02T20:52:15.409Z,10.90
2023-03-02T20:54:17.868Z,8.38
2023-03-02T20:56:21.683Z,8.07
2023-03-02T20:58:26.041Z,10.20
2023-03-02T21:00:30.217Z,8.50
2023-03-02T21:02:32.353Z,7.55
2023-03-02T21:04:36.219Z,7.70
2023-03-02T21:06:39.148Z,11.88
2023-03-02T21:08:42.028Z,15.68
2023-03-02T21:10:46.630Z,10.32
2023-03-02T21:12:49.198Z,9.65
2023-03-02T21:14:51.694Z,12.27
2023-03-02T21:16:54.271Z,6.32
2023-03-02T21:18:56.615Z,10.25
2023-03-02T21:20:58.616Z,15.20
2023-03-02T21:23:00.715Z,11.63
2023-03-02T21:25:02.806Z,9.27
2023-03-02T21:27:07.313Z,9.68
2023-03-02T21:29:12.232Z,10.10
2023-03-02T21:31:18.466Z,11.57
2023-03-02T21:33:21.155Z,14.45
2023-03-02T21:35:24.355Z,7.95
2023-03-02T21:37:27.355Z,8.82
2023-03-02T21:39:29.455Z,8.57
2023-03-02T21:41:31.508Z,7.18
2023-03-02T21:43:34.011Z,13.45
2023-03-02T21:45:37.274Z,7.43
2023-03-02T21:47:42.127Z,8.07
2023-03-02T21:49:47.068Z,13.55
2023-03-02T21:51:50.030Z,11.55
2023-03-02T21:53:53.519Z,7.63
2023-03-02T21:55:55.450Z,8.55
2023-03-02T21:57:57.941Z,9.35
2023-03-02T22:00:00.812Z,10.27
2023-03-02T22:02:03.006Z,11.70
2023-03-02T22:04:05.782Z,7.03
2023-03-02T22:06:07.909Z,10.77
2023-03-02T22:08:16.699Z,6.53
2023-03-02T22:10:27.012Z,7.35
2023-03-02T22:12:29.273Z,10.98
2023-03-02T22:14:31.472Z,5.63
2023-03-02T22:16:38.401Z,10.38
2023-03-02T22:18:40.944Z,7.50
2023-03-02T22:20:44.984Z,9.23
2023-03-02T22:22:49.958Z,8.48
2023-03-02T22:24:54.178Z,9.02
2023-03-02T22:27:00.817Z,7.88
2023-03-02T22:29:16.153Z,9.00
2023-03-02T22:31:24.076Z,9.00
2023-03-02T22:33:28.312Z,12.18
2023-03-02T22:35:30.610Z,12.48
2023-03-02T22:37:35.163Z,8.25
2023-03-02T22:39:37.349Z,10.65
2023-03-02T22:41:39.843Z,11.77
2023-03-02T22:43:42.075Z,6.15
2023-03-02T22:45:44.153Z,12.18
2023-03-02T22:47:51.338Z,8.13
2023-03-02T22:49:58.942Z,7.70
2023-03-02T22:52:03.595Z,12.93
2023-03-02T22:54:16.822Z,10.00
2023-03-02T22:56:25.873Z,8.93
2023-03-02T22:58:35.163Z,8.88
2023-03-02T23:00:43.235Z,10.70
2023-03-02T23:02:46.752Z,10.23
2023-03-02T23:04:50.664Z,10.23
2023-03-02T23:06:57.061Z,7.85
2023-03-02T23:09:02.354Z,9.85
2023-03-02T23:11:15.881Z,9.23
2023-03-02T23:13:27.433Z,8.85
2023-03-02T23:15:30.102Z,8.27
2023-03-02T23:17:39.003Z,8.15
2023-03-02T23:19:41.662Z,14.52
2023-03-02T23:21:46.427Z,8.30
2023-03-02T23:23:52.083Z,10.55
2023-03-02T23:25:54.259Z,9.13
2023-03-02T23:27:57.313Z,8.20
2023-03-02T23:30:00.332Z,11.00
2023-03-02T23:32:03.727Z,12.52
2023-03-02T23:34:06.358Z,9.65
2023-03-02T23:36:08.701Z,7.50
2023-03-02T23:38:10.581Z,9.07
2023-03-02T23:40:12.849Z,8.48
2023-03-02T23:42:14.744Z,8.98
2023-03-02T23:44:16.666Z,7.53
2023-03-02T23:46:18.508Z,7.95
2023-03-02T23:48:20.404Z,8.60
2023-03-02T23:50:22.380Z,6.32
2023-03-02T23:52:24.226Z,11.35
2023-03-02T23:54:26.398Z,13.23
2023-03-02T23:56:28.243Z,7.10
2023-03-02T23:58:30.145Z,7.63
